createdAt,value
2018-05-27T00:00:03.530Z,100.00
2018-05-27T00:02:32.611Z,100.00
2018-05-27T00:05:01.500Z,100.00
2018-05-27T00:07:30.508Z,99.94
2018-05-27T00:09:59.580Z,99.98
2018-05-27T00:12:28.868Z,100.00
2018-05-27T00:14:57.933Z,100.00
2018-05-27T00:17:26.882Z,100.00
2018-05-27T00:19:56.081Z,100.00
2018-05-27T00:22:25.141Z,100.00
2018-05-27T00:24:54.252Z,100.00
2018-05-27T00:27:23.807Z,100.00
2018-05-27T00:29:54.109Z,100.00
2018-05-27T00:32:23.196Z,100.00
2018-05-27T00:34:52.334Z,100.00
2018-05-27T00:37:21.384Z,100.00
2018-05-27T00:39:50.393Z,100.00
2018-05-27T00:42:19.335Z,100.00
2018-05-27T00:44:48.282Z,100.00
2018-05-27T00:49:52.353Z,100.00
2018-05-27T00:52:22.165Z,100.00
2018-05-27T00:54:51.013Z,100.00
2018-05-27T00:57:21.683Z,100.00
2018-05-27T00:59:51.663Z,100.00
2018-05-27T01:02:20.559Z,100.00
2018-05-27T01:04:49.550Z,100.00
2018-05-27T01:07:18.678Z,100.00
2018-05-27T01:09:47.767Z,100.00
2018-05-27T01:12:16.838Z,100.00
2018-05-27T01:14:45.933Z,100.00
2018-05-27T01:17:15.029Z,100.00
2018-05-27T01:19:44.025Z,100.00
2018-05-27T01:22:13.063Z,100.00
2018-05-27T01:24:42.528Z,100.00
2018-05-27T01:27:12.452Z,100.00
2018-05-27T01:29:42.361Z,100.00
2018-05-27T01:32:11.460Z,100.00
2018-05-27T01:34:40.607Z,100.00
2018-05-27T01:37:09.548Z,100.00
2018-05-27T01:39:39.009Z,100.00
2018-05-27T01:42:09.042Z,99.97
2018-05-27T01:44:37.967Z,99.81
2018-05-27T01:47:06.958Z,99.62
2018-05-27T01:49:36.155Z,99.18
2018-05-27T01:52:05.167Z,98.84
2018-05-27T01:54:35.051Z,98.85
2018-05-27T01:57:07.012Z,99.11
2018-05-27T01:59:36.060Z,99.32
2018-05-27T02:02:04.911Z,99.23
2018-05-27T02:04:35.311Z,99.03
2018-05-27T02:07:04.210Z,99.20
2018-05-27T02:09:33.422Z,98.72
2018-05-27T02:12:02.532Z,98.65
2018-05-27T02:14:32.498Z,98.61
2018-05-27T02:17:01.956Z,98.48
2018-05-27T02:22:05.055Z,98.07
2018-05-27T02:24:33.995Z,97.70
2018-05-27T02:27:04.986Z,97.53
2018-05-27T02:29:35.329Z,97.36
2018-05-27T02:32:05.075Z,97.18
2018-05-27T02:34:35.765Z,97.64
2018-05-27T02:37:04.748Z,97.25
2018-05-27T02:39:33.655Z,97.15
2018-05-27T02:42:03.543Z,97.06
2018-05-27T02:44:32.617Z,96.95
2018-05-27T02:47:01.555Z,97.20
2018-05-27T02:49:30.549Z,97.04
2018-05-27T02:51:59.489Z,97.08
2018-05-27T02:54:28.434Z,96.86
2018-05-27T02:56:59.073Z,96.68
2018-05-27T02:59:28.267Z,96.67
2018-05-27T03:01:57.368Z,96.51
2018-05-27T03:04:27.388Z,96.85
2018-05-27T03:06:56.479Z,96.92
2018-05-27T03:09:25.884Z,96.66
2018-05-27T03:14:29.895Z,96.94
2018-05-27T03:16:59.504Z,96.41
2018-05-27T03:22:04.168Z,96.45
2018-05-27T03:24:33.176Z,96.19
2018-05-27T03:27:02.142Z,95.83
2018-05-27T03:29:31.253Z,95.58
2018-05-27T03:32:00.762Z,95.24
2018-05-27T03:34:31.595Z,94.98
2018-05-27T03:37:01.509Z,94.87
2018-05-27T03:45:31.291Z,92.24
2018-05-27T03:48:00.271Z,89.24
2018-05-27T03:50:30.369Z,87.99
2018-05-27T03:53:02.043Z,88.90
2018-05-27T03:55:31.066Z,90.17
2018-05-27T03:57:59.890Z,91.15
2018-05-27T04:00:30.048Z,92.01
2018-05-27T04:02:58.855Z,92.07
2018-05-27T04:05:42.166Z,92.35
2018-05-27T04:08:22.830Z,92.64
2018-05-27T04:10:52.592Z,92.72
2018-05-27T04:13:21.541Z,92.93
2018-05-27T04:15:50.534Z,93.03
2018-05-27T04:18:19.487Z,92.56
2018-05-27T04:20:48.497Z,91.87
2018-05-27T04:23:18.303Z,92.40
2018-05-27T04:25:47.537Z,92.39
2018-05-27T04:28:17.313Z,91.75
2018-05-27T04:30:46.554Z,91.44
2018-05-27T04:33:15.893Z,90.03
2018-05-27T04:35:44.840Z,89.31
2018-05-27T04:38:13.833Z,84.15
2018-05-27T04:40:43.043Z,80.23
2018-05-27T04:43:11.980Z,77.50
2018-05-27T04:45:40.921Z,75.53
2018-05-27T04:48:12.685Z,75.20
2018-05-27T04:50:41.602Z,71.61
2018-05-27T04:53:11.287Z,70.88
2018-05-27T04:55:40.615Z,71.04
2018-05-27T04:58:09.628Z,69.31
2018-05-27T05:00:40.809Z,67.50
2018-05-27T05:03:09.819Z,65.87
2018-05-27T05:05:41.734Z,64.51
2018-05-27T05:08:10.801Z,65.68
2018-05-27T05:10:42.941Z,64.00
2018-05-27T05:13:14.808Z,64.61
2018-05-27T05:15:44.546Z,62.09
2018-05-27T05:18:21.918Z,62.49
2018-05-27T05:20:50.832Z,62.69
2018-05-27T05:23:19.815Z,59.62
2018-05-27T05:25:48.897Z,61.28
2018-05-27T05:28:18.807Z,62.09
2018-05-27T05:30:47.909Z,59.59
2018-05-27T05:33:19.448Z,60.95
2018-05-27T05:35:49.382Z,59.56
2018-05-27T05:38:18.504Z,60.80
2018-05-27T05:40:47.568Z,62.38
2018-05-27T05:43:16.669Z,65.49
2018-05-27T05:45:45.705Z,64.15
2018-05-27T05:48:15.579Z,63.03
2018-05-27T05:50:44.466Z,64.72
2018-05-27T05:53:13.665Z,62.74
2018-05-27T05:58:16.569Z,62.92
2018-05-27T06:00:45.836Z,64.66
2018-05-27T06:03:15.665Z,66.24
2018-05-27T06:05:44.575Z,68.48
2018-05-27T06:08:13.515Z,70.32
2018-05-27T06:10:43.415Z,66.39
2018-05-27T06:13:12.287Z,67.08
2018-05-27T06:15:41.372Z,67.62
2018-05-27T06:18:10.471Z,64.32
2018-05-27T06:20:39.489Z,62.89
2018-05-27T06:23:08.563Z,63.78
2018-05-27T06:25:37.782Z,60.03
2018-05-27T06:28:06.754Z,56.61
2018-05-27T06:30:35.765Z,58.89
2018-05-27T06:33:04.843Z,65.09
2018-05-27T06:35:33.924Z,63.68
2018-05-27T06:38:03.047Z,66.35
2018-05-27T06:40:34.804Z,68.47
2018-05-27T06:43:03.837Z,68.57
2018-05-27T06:45:32.891Z,67.55
2018-05-27T06:48:03.519Z,67.03
2018-05-27T06:50:33.637Z,64.78
2018-05-27T06:53:02.755Z,66.04
2018-05-27T06:55:31.840Z,66.56
2018-05-27T06:58:00.833Z,67.26
2018-05-27T07:00:30.306Z,62.85
2018-05-27T07:05:33.647Z,65.26
2018-05-27T07:08:02.623Z,63.36
2018-05-27T07:10:32.459Z,64.45
2018-05-27T07:13:01.348Z,63.03
2018-05-27T07:15:30.373Z,61.25
2018-05-27T07:18:02.096Z,60.29
2018-05-27T07:20:31.971Z,60.13
2018-05-27T07:23:01.017Z,61.26
2018-05-27T07:25:30.824Z,61.01
2018-05-27T07:27:59.925Z,60.72
2018-05-27T07:30:28.920Z,61.16
2018-05-27T07:32:59.601Z,58.08
2018-05-27T07:35:29.666Z,56.98
2018-05-27T07:37:58.761Z,57.34
2018-05-27T07:40:27.855Z,60.45
2018-05-27T07:42:56.884Z,58.69
2018-05-27T07:45:25.782Z,60.81
2018-05-27T07:47:55.666Z,63.56
2018-05-27T07:50:25.450Z,62.99
2018-05-27T07:52:54.571Z,62.38
2018-05-27T07:55:24.609Z,62.52
2018-05-27T07:57:54.615Z,60.84
2018-05-27T08:00:23.754Z,59.15
2018-05-27T08:02:53.736Z,60.39
2018-05-27T08:05:22.715Z,61.51
2018-05-27T08:07:51.726Z,61.12
2018-05-27T08:10:21.430Z,60.24
2018-05-27T08:12:50.374Z,61.10
2018-05-27T08:15:19.204Z,62.15
2018-05-27T08:17:48.273Z,64.39
2018-05-27T08:20:17.641Z,64.18
2018-05-27T08:22:46.765Z,64.82
2018-05-27T08:25:19.449Z,63.94
2018-05-27T08:27:49.073Z,62.79
2018-05-27T08:30:18.064Z,62.38
2018-05-27T08:32:47.147Z,61.29
2018-05-27T08:35:16.259Z,60.98
2018-05-27T08:37:45.233Z,62.88
2018-05-27T08:40:14.169Z,62.32
2018-05-27T08:42:43.167Z,61.65
2018-05-27T08:45:12.116Z,62.00
2018-05-27T08:47:43.372Z,62.89
2018-05-27T08:50:12.294Z,62.51
2018-05-27T08:52:41.764Z,62.82
2018-05-27T08:55:10.757Z,62.44
2018-05-27T08:57:40.878Z,64.13
2018-05-27T09:00:09.869Z,64.19
2018-05-27T09:02:39.685Z,61.31
2018-05-27T09:05:08.686Z,61.96
2018-05-27T09:07:37.683Z,59.02
2018-05-27T09:10:07.382Z,59.10
2018-05-27T09:12:36.201Z,57.24
2018-05-27T09:15:05.124Z,58.66
2018-05-27T09:20:09.097Z,61.87
2018-05-27T09:22:39.154Z,62.05
2018-05-27T09:25:10.999Z,62.52
2018-05-27T09:27:39.924Z,61.68
2018-05-27T09:30:08.809Z,61.21
2018-05-27T09:32:37.722Z,58.52
2018-05-27T09:35:06.749Z,59.10
2018-05-27T09:37:36.390Z,60.20
2018-05-27T09:40:05.361Z,60.25
2018-05-27T09:42:34.282Z,61.60
2018-05-27T09:45:03.260Z,60.93
2018-05-27T09:47:33.153Z,61.70
2018-05-27T09:50:02.072Z,60.26
2018-05-27T09:52:31.123Z,60.33
2018-05-27T09:55:02.885Z,60.14
2018-05-27T09:57:31.924Z,59.20
2018-05-27T10:00:00.880Z,58.96
2018-05-27T10:02:30.089Z,59.07
2018-05-27T10:04:58.974Z,58.89
2018-05-27T10:07:27.970Z,58.78
2018-05-27T10:09:59.834Z,58.59
2018-05-27T10:12:28.727Z,58.10
2018-05-27T10:14:57.814Z,57.72
2018-05-27T10:17:27.538Z,59.69
2018-05-27T10:19:57.252Z,59.05
2018-05-27T10:22:26.347Z,58.74
2018-05-27T10:24:55.554Z,60.44
2018-05-27T10:27:24.593Z,59.62
2018-05-27T10:29:53.531Z,58.65
2018-05-27T10:32:22.419Z,58.13
2018-05-27T10:34:51.313Z,57.36
2018-05-27T10:37:21.428Z,58.52
2018-05-27T10:39:51.498Z,57.19
2018-05-27T10:42:20.446Z,58.49
2018-05-27T10:44:49.807Z,58.40
2018-05-27T10:47:20.447Z,56.76
2018-05-27T10:49:50.202Z,56.81
2018-05-27T10:52:18.984Z,57.28
2018-05-27T10:57:22.092Z,56.77
2018-05-27T10:59:50.919Z,57.53
2018-05-27T11:02:19.871Z,56.35
2018-05-27T11:04:48.905Z,56.32
2018-05-27T11:07:17.893Z,56.09
2018-05-27T11:09:49.115Z,56.13
2018-05-27T11:12:18.444Z,54.95
2018-05-27T11:14:47.444Z,56.35
2018-05-27T11:17:16.399Z,56.40
2018-05-27T11:19:45.342Z,56.92
2018-05-27T11:22:14.116Z,56.71
2018-05-27T11:24:43.076Z,57.39
2018-05-27T11:27:11.969Z,57.53
2018-05-27T11:29:41.067Z,57.09
2018-05-27T11:34:43.859Z,56.85
2018-05-27T11:37:12.758Z,57.36
2018-05-27T11:39:41.793Z,57.51
2018-05-27T11:42:10.641Z,55.58
2018-05-27T11:44:39.640Z,57.09
2018-05-27T11:47:08.528Z,56.99
2018-05-27T11:49:37.522Z,58.13
2018-05-27T11:52:07.802Z,57.80
2018-05-27T11:54:37.289Z,57.56
2018-05-27T11:57:07.270Z,58.87
2018-05-27T11:59:36.297Z,59.11
2018-05-27T12:02:05.210Z,58.31
2018-05-27T12:04:34.661Z,58.76
2018-05-27T12:07:04.371Z,57.19
2018-05-27T12:09:33.373Z,58.83
2018-05-27T12:12:06.357Z,56.35
2018-05-27T12:14:35.354Z,56.83
2018-05-27T12:17:04.414Z,57.31
2018-05-27T12:19:34.367Z,56.75
2018-05-27T12:22:03.969Z,57.61
2018-05-27T12:24:32.861Z,58.37
2018-05-27T12:27:02.015Z,58.02
2018-05-27T12:29:30.952Z,59.53
2018-05-27T12:31:59.843Z,59.08
2018-05-27T12:34:28.781Z,57.47
2018-05-27T12:36:57.904Z,57.06
2018-05-27T12:39:26.873Z,57.39
2018-05-27T12:41:57.565Z,58.40
2018-05-27T12:44:26.663Z,57.71
2018-05-27T12:46:55.550Z,58.71
2018-05-27T12:49:24.443Z,58.68
2018-05-27T12:51:53.355Z,59.46
2018-05-27T12:54:23.253Z,57.76
2018-05-27T12:56:55.650Z,57.05
2018-05-27T12:59:24.729Z,58.36
2018-05-27T13:01:53.645Z,57.53
2018-05-27T13:04:22.746Z,57.89
2018-05-27T13:06:51.741Z,57.64
2018-05-27T13:09:20.696Z,59.35
2018-05-27T13:11:52.834Z,58.67
2018-05-27T13:14:21.757Z,57.95
2018-05-27T13:16:51.049Z,57.51
2018-05-27T13:19:20.844Z,58.39
2018-05-27T13:21:49.822Z,59.12
2018-05-27T13:24:19.872Z,58.99
2018-05-27T13:26:50.337Z,58.50
2018-05-27T13:29:20.134Z,58.52
2018-05-27T13:31:49.139Z,59.34
2018-05-27T13:34:18.318Z,59.27
2018-05-27T13:36:47.789Z,59.90
2018-05-27T13:39:16.860Z,59.48
2018-05-27T13:41:46.018Z,59.27
2018-05-27T13:44:14.912Z,59.37
2018-05-27T13:46:44.117Z,60.10
2018-05-27T13:49:13.091Z,62.24
2018-05-27T13:51:42.032Z,63.71
2018-05-27T13:54:11.044Z,62.09
2018-05-27T13:56:40.851Z,63.99
2018-05-27T13:59:09.800Z,63.81
2018-05-27T14:01:38.829Z,62.16
2018-05-27T14:04:08.142Z,63.50
2018-05-27T14:06:37.132Z,64.59
2018-05-27T14:09:07.230Z,64.07
2018-05-27T14:11:39.072Z,64.28
2018-05-27T14:14:07.866Z,65.05
2018-05-27T14:16:37.062Z,64.65
2018-05-27T14:19:07.213Z,63.11
2018-05-27T14:21:36.382Z,63.01
2018-05-27T14:24:05.475Z,63.68
2018-05-27T14:26:35.292Z,62.74
2018-05-27T14:29:04.488Z,63.86
2018-05-27T14:31:33.481Z,64.59
2018-05-27T14:34:02.488Z,63.99
2018-05-27T14:36:31.367Z,64.43
2018-05-27T14:39:01.080Z,64.27
2018-05-27T14:41:30.155Z,63.00
2018-05-27T14:43:59.248Z,62.53
2018-05-27T14:46:28.260Z,62.45
2018-05-27T14:48:57.902Z,62.07
2018-05-27T14:51:27.268Z,60.09
2018-05-27T14:53:56.773Z,61.10
2018-05-27T14:56:27.624Z,61.77
2018-05-27T14:58:57.441Z,62.32
2018-05-27T15:01:27.371Z,62.47
2018-05-27T15:03:57.649Z,64.22
2018-05-27T15:06:26.574Z,63.25
2018-05-27T15:08:55.461Z,62.14
2018-05-27T15:11:24.550Z,62.59
2018-05-27T15:13:54.083Z,61.94
2018-05-27T15:16:22.969Z,62.97
2018-05-27T15:18:54.755Z,62.85
2018-05-27T15:21:23.608Z,63.84
2018-05-27T15:23:52.709Z,64.13
2018-05-27T15:26:21.822Z,64.64
2018-05-27T15:28:51.619Z,63.60
2018-05-27T15:31:20.615Z,63.61
2018-05-27T15:33:49.595Z,64.24
2018-05-27T15:36:18.786Z,63.71
2018-05-27T15:38:47.682Z,63.63
2018-05-27T15:41:16.585Z,64.24
2018-05-27T15:43:45.659Z,64.39
2018-05-27T15:46:14.685Z,64.14
2018-05-27T15:48:44.591Z,63.88
2018-05-27T15:51:13.629Z,64.98
2018-05-27T15:53:42.581Z,65.86
2018-05-27T15:56:11.408Z,65.56
2018-05-27T15:58:40.399Z,65.97
2018-05-27T16:01:09.362Z,65.81
2018-05-27T16:03:40.865Z,63.86
2018-05-27T16:06:09.841Z,63.38
2018-05-27T16:08:38.701Z,63.86
2018-05-27T16:11:08.091Z,63.59
2018-05-27T16:13:37.831Z,63.66
2018-05-27T16:16:06.953Z,63.94
2018-05-27T16:18:37.030Z,63.80
2018-05-27T16:21:05.920Z,63.83
2018-05-27T16:23:34.998Z,64.18
2018-05-27T16:26:08.113Z,64.51
2018-05-27T16:28:37.302Z,64.60
2018-05-27T16:31:06.308Z,64.54
2018-05-27T16:33:35.999Z,64.09
2018-05-27T16:36:04.909Z,64.28
2018-05-27T16:38:33.799Z,63.97
2018-05-27T16:41:03.720Z,60.71
2018-05-27T16:43:32.894Z,59.75
2018-05-27T16:46:02.111Z,57.52
2018-05-27T16:48:31.514Z,56.43
2018-05-27T16:51:00.461Z,55.56
2018-05-27T16:53:29.524Z,54.70
2018-05-27T16:55:58.601Z,54.76
2018-05-27T16:58:27.640Z,54.31
2018-05-27T17:00:57.076Z,53.96
2018-05-27T17:03:26.129Z,53.87
2018-05-27T17:05:55.263Z,54.20
2018-05-27T17:08:24.291Z,53.76
2018-05-27T17:10:54.143Z,53.08
2018-05-27T17:13:23.126Z,53.32
2018-05-27T17:15:52.330Z,53.90
2018-05-27T17:18:21.434Z,54.40
2018-05-27T17:20:50.748Z,55.06
2018-05-27T17:23:19.613Z,55.37
2018-05-27T17:25:49.436Z,55.89
2018-05-27T17:28:18.397Z,56.08
2018-05-27T17:30:47.451Z,56.41
2018-05-27T17:33:18.053Z,56.76
2018-05-27T17:35:47.538Z,57.66
2018-05-27T17:38:16.621Z,58.83
2018-05-27T17:40:47.253Z,59.33
2018-05-27T17:43:16.337Z,59.80
2018-05-27T17:45:45.239Z,61.12
2018-05-27T17:48:14.444Z,61.64
2018-05-27T17:50:43.439Z,61.78
2018-05-27T17:53:12.531Z,62.42
2018-05-27T17:55:44.135Z,63.00
2018-05-27T17:58:13.077Z,63.33
2018-05-27T18:00:42.376Z,63.47
2018-05-27T18:03:13.934Z,63.50
2018-05-27T18:05:43.270Z,62.64
2018-05-27T18:08:12.371Z,62.92
2018-05-27T18:10:42.102Z,62.72
2018-05-27T18:13:11.151Z,62.31
2018-05-27T18:15:40.461Z,62.38
2018-05-27T18:20:44.105Z,62.91
2018-05-27T18:23:14.014Z,63.06
2018-05-27T18:26:00.381Z,62.61
2018-05-27T18:28:33.673Z,62.77
2018-05-27T18:31:02.778Z,63.04
2018-05-27T18:33:34.931Z,63.25
2018-05-27T18:36:05.946Z,63.50
2018-05-27T18:38:34.946Z,63.34
2018-05-27T18:41:09.874Z,63.46
2018-05-27T18:43:39.148Z,63.46
2018-05-27T18:46:08.025Z,63.79
2018-05-27T18:48:37.198Z,63.58
2018-05-27T18:51:06.368Z,63.64
2018-05-27T18:53:35.133Z,63.73
2018-05-27T18:56:03.999Z,63.90
2018-05-27T18:58:32.973Z,64.05
2018-05-27T19:01:02.159Z,64.17
2018-05-27T19:03:31.251Z,64.24
2018-05-27T19:06:00.279Z,63.98
2018-05-27T19:08:29.306Z,64.03
2018-05-27T19:10:58.210Z,63.59
2018-05-27T19:13:27.023Z,63.31
2018-05-27T19:15:55.845Z,63.59
2018-05-27T19:18:24.687Z,62.79
2018-05-27T19:20:53.491Z,62.76
2018-05-27T19:23:22.273Z,62.36
2018-05-27T19:28:25.419Z,61.64
2018-05-27T19:30:54.175Z,61.13
2018-05-27T19:33:22.986Z,61.06
2018-05-27T19:35:51.814Z,60.29
2018-05-27T19:38:20.523Z,60.12
2018-05-27T19:40:49.293Z,59.92
2018-05-27T19:43:18.125Z,59.79
2018-05-27T19:45:46.868Z,59.61
2018-05-27T19:48:15.633Z,59.58
2018-05-27T19:50:46.106Z,58.81
2018-05-27T19:53:14.834Z,58.66
2018-05-27T19:55:43.687Z,58.72
2018-05-27T19:58:15.442Z,58.72
2018-05-27T20:00:44.265Z,58.21
2018-05-27T20:03:12.974Z,58.42
2018-05-27T20:05:42.684Z,58.19
2018-05-27T20:08:11.376Z,58.37
2018-05-27T20:10:40.104Z,58.07
2018-05-27T20:13:09.812Z,58.65
2018-05-27T20:15:38.579Z,58.13
2018-05-27T20:18:07.397Z,57.79
2018-05-27T20:20:38.075Z,57.92
2018-05-27T20:23:07.224Z,57.57
2018-05-27T20:25:36.584Z,57.48
2018-05-27T20:28:05.566Z,57.44
2018-05-27T20:30:34.678Z,57.41
2018-05-27T20:33:04.274Z,57.03
2018-05-27T20:35:35.938Z,57.17
2018-05-27T20:38:05.633Z,57.18
2018-05-27T20:40:34.405Z,57.57
2018-05-27T20:43:05.098Z,57.59
2018-05-27T20:45:34.412Z,57.82
2018-05-27T20:48:04.392Z,57.70
2018-05-27T20:53:07.026Z,57.96
2018-05-27T20:55:36.071Z,57.64
2018-05-27T20:58:05.209Z,57.83
2018-05-27T21:00:34.121Z,57.74
2018-05-27T21:03:02.950Z,56.92
2018-05-27T21:05:32.108Z,56.48
2018-05-27T21:08:01.045Z,57.09
2018-05-27T21:10:29.936Z,57.50
2018-05-27T21:15:32.736Z,58.68
2018-05-27T21:18:01.942Z,58.85
2018-05-27T21:20:30.687Z,59.01
2018-05-27T21:22:59.429Z,59.62
2018-05-27T21:25:28.166Z,59.81
2018-05-27T21:27:57.003Z,59.93
2018-05-27T21:30:25.783Z,60.00
2018-05-27T21:32:54.672Z,59.98
2018-05-27T21:35:23.450Z,60.07
2018-05-27T21:37:52.203Z,60.60
2018-05-27T21:40:21.144Z,60.79
2018-05-27T21:42:49.900Z,60.96
2018-05-27T21:45:18.669Z,61.05
2018-05-27T21:47:47.411Z,60.93
2018-05-27T21:50:16.283Z,61.37
2018-05-27T21:52:45.045Z,61.40
2018-05-27T21:55:13.843Z,61.34
2018-05-27T21:57:43.446Z,61.70
2018-05-27T22:00:12.156Z,61.44
2018-05-27T22:02:40.959Z,61.66
2018-05-27T22:05:09.727Z,61.51
2018-05-27T22:07:38.494Z,61.45
2018-05-27T22:10:07.248Z,61.45
2018-05-27T22:12:36.046Z,61.05
2018-05-27T22:15:04.873Z,60.93
2018-05-27T22:17:33.559Z,61.33
2018-05-27T22:20:02.399Z,61.39
2018-05-27T22:22:32.200Z,61.39
2018-05-27T22:25:01.045Z,61.14
2018-05-27T22:27:30.605Z,60.79
2018-05-27T22:29:59.363Z,60.42
2018-05-27T22:32:28.242Z,59.95
2018-05-27T22:34:57.025Z,59.79
2018-05-27T22:37:25.783Z,59.38
2018-05-27T22:39:54.545Z,59.21
2018-05-27T22:42:27.118Z,59.08
2018-05-27T22:44:55.861Z,58.61
2018-05-27T22:47:24.563Z,58.28
2018-05-27T22:49:54.208Z,57.68
2018-05-27T22:52:22.903Z,57.16
2018-05-27T22:54:51.687Z,56.91
2018-05-27T22:57:22.705Z,56.74
2018-05-27T22:59:51.582Z,56.56
2018-05-27T23:02:20.345Z,56.46
2018-05-27T23:04:49.149Z,56.13
2018-05-27T23:07:17.982Z,55.46
2018-05-27T23:09:46.802Z,55.56
2018-05-27T23:12:21.341Z,55.55
2018-05-27T23:14:50.121Z,55.69
2018-05-27T23:17:18.932Z,55.39
2018-05-27T23:19:47.941Z,55.40
2018-05-27T23:22:16.714Z,55.23
2018-05-27T23:24:45.585Z,54.85
2018-05-27T23:27:14.436Z,54.52
2018-05-27T23:29:43.341Z,54.01
2018-05-27T23:32:12.104Z,53.64
2018-05-27T23:34:42.633Z,53.52
2018-05-27T23:37:11.843Z,53.45
2018-05-27T23:39:40.778Z,53.42
2018-05-27T23:42:12.667Z,53.51
2018-05-27T23:44:41.522Z,53.56
2018-05-27T23:47:10.329Z,53.66
2018-05-27T23:49:39.999Z,53.14
2018-05-27T23:52:09.098Z,53.19
2018-05-27T23:54:38.021Z,53.50
2018-05-27T23:57:06.978Z,53.01
2018-05-27T23:59:35.874Z,53.14
